KGSB/GSB METAR and TAF weather

Enter ICAO airport designator
Station Type Date Time Source
KGSB METAR 2020/01/28 11:56 UTC NOAA

KGSB 281156Z AUTO 30003KT 10SM OVC060 05/02 A2993 RMK AO2 SLP139 70005 T00450022 10066 20039 52018 $


Station Type Date Time Source
KGSB Decoded METAR 2020/01/28 11:56 UTC NOAA

Seymour-Johnson Air Force Base, NC, United States (KGSB) 35-20N 077-58W
Jan 28, 2020 - 06:56 AM EST / 2020.01.28 1156 UTC
Wind: from the WNW (300 degrees) at 3 MPH (3 KT):0
Visibility: 10 mile(s):0
Sky conditions: overcast
Temperature: 40.1 F (4.5 C)
Dew Point: 36.0 F (2.2 C)
Relative Humidity: 84%
Pressure (altimeter): 29.93 in. Hg (1013 hPa)
Pressure tendency: 0.05 inches (1.8 hPa) higher than three hours ago
ob: KGSB 281156Z AUTO 30003KT 10SM OVC060 05/02 A2993 RMK AO2 SLP139 70005 T00450022 10066 20039 52018
cycle: 12

Station Type Date Time Source
KGSB TAF 2020/01/28 12:57 UTC NOAA

TAF TAF
AMD KGSB 281200Z 2812/2911 32006KT 9999 BKN050 QNH2991INS TX11/2821Z TN05/2812Z

Example: see airport list